Portada
METAR-TAF:

METAR-TAF

Aeroports :

Flora Municipal Airport

Flora, Illinois, Estats Units d'Amèrica

latitud: 38-39-54N, longitud: 088-27-11W, altitud: 144 m

Observació

L'informe es va fer fa 23 minuts, a les 18:55 UTC
Vent 8 kt del Nord/Nord-Oest
Temperatura 15°C
Humitat 44%
Pressió 1022 hPa
Visibilitat: 16.1 km
Cel cobert a una alçada de 8000 ft

METAR: KFOA 131855Z AUTO 33008KT 10SM OVC080 15/03 A3017 RMK AO2

Hora: 14:18 (19:18 UTC)


TAF: manca

Observacions i pronòstics meteorològics de més de 4000 aeroports (METAR i TAF).

Les estacions disponibles són els punts grocs i vermells al mapa.

Posi el ratolí al punt desitjat per veure el nom de l'estació.

Feu clic per veure les observacions i els pronòstics meteorològics.

Per canviar el mapa: feu clic els botons verds amb una creu de color negre per apropar; al botó verd amb un guió per allunyar la imatge; o en les fletxes verdes per a mapes adjacents.


METAR-TAF: